Airport View

Enter AWOS ICAO identifier for current METAR.

ex. KFNL

KSNC 022315Z AUTO 18003KT 10SM CLR 19/06 A2986 RMK AO2

2 Jun 2020 23:48

Frequency: 118.325

Phone: 860-526-1551

Other Area AWOS: KMMK - KHVN - KGON - KHFD

TAF AMD KGON 021956Z 0220/0318 20005KT P6SM SCT040 BKN070 FM022300 23006KT P6SM BKN040 FM030400 23006KT P6SM VCSH BKN040 FM030900 23008KT P6SM VCSH SCT010 BKN035 FM031400 25011KT P6SM VCSH SCT020 BKN035 FM031600 25014G22KT P6SM -SHRA SCT015 BKN035 OVC050